Time;durP1;ratioP1;P1;durP2;ratioP2;P2;SDS_P1;SDS_P2;PMS_P1;PMS_P2;Temp;Humidity;BMP_temperature;BMP_pressure;BME280_temperature;BME280_humidity;BME280_pressure;Samples;Min_cycle;Max_cycle;Signal;HPM_P1;HPM_P2
2022/11/05 00:10:22;;;;;;;;;;;;;;;7.55;51.07;95223.13;5016887;28;20352;-71
2022/11/05 00:18:15;;;;;;;;;;;;;;;6.47;53.79;95223.91;4997146;28;20357;-71
2022/11/05 00:20:40;;;;;;;;;;;;;;;6.68;52.84;95229.78;4996292;28;19969;-73
2022/11/05 00:25:53;;;;;;;;;;;;;;;7.26;51.68;95235.09;4998354;28;19977;-71
2022/11/05 00:28:18;;;;;;;;;;;;;;;6.96;53.20;95243.53;4999369;28;19991;-71
2022/11/05 00:30:44;;;;;;;;;;;;;;;6.87;53.50;95244.53;5029015;28;20548;-71
2022/11/05 00:33:09;;;;;;;;;;;;;;;6.84;52.36;95255.44;4991728;28;20030;-72
2022/11/05 00:35:34;;;;;;;;;;;;;;;6.23;54.44;95254.56;4992325;28;19994;-73
2022/11/05 00:37:59;;;;;;;;;;;;;;;5.85;55.29;95259.38;4995993;28;20043;-71
2022/11/05 00:40:25;;;;;;;;;;;;;;;5.71;56.02;95261.59;4989607;28;19978;-71
2022/11/05 00:45:34;;;;;;;;;;;;;;;6.57;53.81;95263.50;4990119;28;19996;-73
2022/11/05 00:50:43;;;;;;;;;;;;;;;6.89;52.68;95267.19;4988307;28;20000;-74
2022/11/05 00:53:08;;;;;;;;;;;;;;;6.45;53.68;95272.66;4996943;28;20338;-72
2022/11/05 00:55:38;;;;;;;;;;;;;;;6.55;53.71;95277.84;4994823;28;19997;-72
2022/11/05 00:58:04;;;;;;;;;;;;;;;6.10;54.81;95275.34;4992195;28;19977;-74
2022/11/05 01:00:30;;;;;;;;;;;;;;;6.52;54.24;95280.84;4993224;28;19974;-71
2022/11/05 01:02:59;;;;;;;;;;;;;;;6.04;55.02;95281.25;4996024;28;20371;-72
2022/11/05 01:05:24;;;;;;;;;;;;;;;5.76;56.30;95289.34;4997774;28;19976;-74
2022/11/05 01:07:50;;;;;;;;;;;;;;;5.69;56.49;95291.81;4988937;28;19994;-75
2022/11/05 01:10:15;;;;;;;;;;;;;;;5.52;56.65;95299.63;4987679;28;20004;-73
2022/11/05 01:12:40;;;;;;;;;;;;;;;5.28;57.26;95303.72;4988502;28;20073;-71
2022/11/05 01:15:06;;;;;;;;;;;;;;;5.77;56.09;95297.13;5024701;28;20001;-72
2022/11/05 01:17:31;;;;;;;;;;;;;;;5.82;56.00;95300.13;4992181;28;19975;-74
2022/11/05 01:19:56;;;;;;;;;;;;;;;5.03;58.20;95303.47;4992833;28;20048;-72
2022/11/05 01:22:22;;;;;;;;;;;;;;;4.57;60.18;95306.97;4992402;28;20004;-72
2022/11/05 01:24:47;;;;;;;;;;;;;;;4.15;61.90;95312.72;4993550;28;19970;-73
2022/11/05 01:27:12;;;;;;;;;;;;;;;5.00;59.73;95305.59;4995066;28;20711;-74
2022/11/05 01:29:37;;;;;;;;;;;;;;;4.75;60.19;95321.16;4993985;28;20410;-71
2022/11/05 01:32:03;;;;;;;;;;;;;;;4.97;59.55;95314.63;4990993;28;19994;-71
2022/11/05 01:34:28;;;;;;;;;;;;;;;4.42;61.63;95329.53;4987775;28;20074;-74
2022/11/05 01:36:53;;;;;;;;;;;;;;;4.18;61.48;95338.78;4997559;28;20490;-74
2022/11/05 01:39:18;;;;;;;;;;;;;;;3.78;61.03;95338.09;4994445;28;20023;-70
2022/11/05 01:41:44;;;;;;;;;;;;;;;3.77;60.15;95342.50;4991636;28;20056;-73
2022/11/05 01:44:28;;;;;;;;;;;;;;;3.63;59.90;95335.88;4986984;28;19997;-72
2022/11/05 01:46:53;;;;;;;;;;;;;;;3.48;60.51;95343.41;4990647;28;19996;-73
2022/11/05 01:49:21;;;;;;;;;;;;;;;4.10;58.80;95342.16;4991112;28;19974;-74
2022/11/05 01:51:47;;;;;;;;;;;;;;;3.93;58.11;95344.56;4986455;28;20467;-75
2022/11/05 01:54:13;;;;;;;;;;;;;;;3.86;58.66;95340.81;5006713;28;19988;-72
2022/11/05 01:56:45;;;;;;;;;;;;;;;4.02;58.45;95344.66;4989752;28;20068;-73
2022/11/05 01:59:15;;;;;;;;;;;;;;;3.78;59.12;95340.72;4994373;28;19997;-70
2022/11/05 02:01:40;;;;;;;;;;;;;;;3.68;58.99;95340.72;4984820;28;20342;-71
2022/11/05 02:04:07;;;;;;;;;;;;;;;3.35;60.49;95335.75;4988228;28;20381;-69
2022/11/05 02:06:33;;;;;;;;;;;;;;;3.80;59.39;95346.66;4992041;28;19986;-69
2022/11/05 02:09:00;;;;;;;;;;;;;;;3.49;60.35;95352.94;4989563;28;20073;-70
2022/11/05 02:11:26;;;;;;;;;;;;;;;3.65;59.09;95349.75;4989984;28;20447;-69
2022/11/05 02:13:51;;;;;;;;;;;;;;;3.90;58.75;95347.47;4988612;28;19970;-71
2022/11/05 02:16:19;;;;;;;;;;;;;;;3.28;59.76;95353.06;4988653;28;20004;-69
2022/11/05 02:18:51;;;;;;;;;;;;;;;3.38;59.82;95350.44;4994491;28;20088;-69
2022/11/05 02:21:40;;;;;;;;;;;;;;;3.76;58.76;95361.06;4988293;28;20096;-71
2022/11/05 02:24:27;;;;;;;;;;;;;;;4.00;59.26;95363.25;5024135;28;20001;-71
2022/11/05 02:26:56;;;;;;;;;;;;;;;4.17;58.26;95366.09;5022638;28;19994;-71
2022/11/05 02:29:24;;;;;;;;;;;;;;;4.56;56.80;95354.59;4991050;28;19973;-71
2022/11/05 02:32:08;;;;;;;;;;;;;;;4.53;56.41;95354.88;4989744;28;19994;-71
2022/11/05 02:34:36;;;;;;;;;;;;;;;5.17;55.02;95344.34;4990506;28;19993;-72
2022/11/05 02:37:08;;;;;;;;;;;;;;;5.47;53.49;95349.41;4987868;28;20107;-71
2022/11/05 02:39:33;;;;;;;;;;;;;;;5.37;53.75;95343.41;4988377;28;19986;-72
2022/11/05 02:42:01;;;;;;;;;;;;;;;5.49;53.48;95347.44;4986442;28;20017;-71
2022/11/05 02:44:45;;;;;;;;;;;;;;;5.59;53.05;95344.72;4987418;28;19974;-70
2022/11/05 02:47:22;;;;;;;;;;;;;;;6.21;52.01;95351.72;4986780;28;20044;-71
2022/11/05 02:50:03;;;;;;;;;;;;;;;6.08;52.60;95346.03;4993080;28;20486;-69
2022/11/05 02:52:32;;;;;;;;;;;;;;;5.81;53.07;95350.47;4992045;28;19996;-71
2022/11/05 02:55:13;;;;;;;;;;;;;;;5.77;53.15;95357.06;4989059;28;20370;-69
2022/11/05 02:57:39;;;;;;;;;;;;;;;6.04;52.75;95356.09;4990362;28;19966;-71
2022/11/05 03:00:05;;;;;;;;;;;;;;;5.58;53.59;95351.00;4991200;28;20039;-69
2022/11/05 03:02:31;;;;;;;;;;;;;;;6.03;52.91;95349.16;4991392;28;20474;-70
2022/11/05 03:04:56;;;;;;;;;;;;;;;5.58;54.13;95348.34;4997555;28;20016;-71
2022/11/05 03:07:21;;;;;;;;;;;;;;;5.57;54.23;95351.94;4993061;28;20080;-71
2022/11/05 03:09:51;;;;;;;;;;;;;;;5.50;54.64;95350.94;4995775;28;20448;-69
2022/11/05 03:12:26;;;;;;;;;;;;;;;5.82;53.63;95347.69;5021538;28;20096;-70
2022/11/05 03:15:03;;;;;;;;;;;;;;;5.80;53.98;95348.81;4992666;28;20762;-71
2022/11/05 03:17:28;;;;;;;;;;;;;;;5.27;55.34;95351.38;4992608;28;20004;-69
2022/11/05 03:19:54;;;;;;;;;;;;;;;5.38;55.29;95361.72;4994794;28;20421;-70
2022/11/05 03:22:24;;;;;;;;;;;;;;;5.35;55.40;95362.84;4995343;28;20474;-71
2022/11/05 03:24:54;;;;;;;;;;;;;;;5.93;54.09;95362.47;5025589;28;19974;-70
2022/11/05 03:27:22;;;;;;;;;;;;;;;5.52;54.95;95370.06;4993199;28;20052;-71
2022/11/05 03:30:00;;;;;;;;;;;;;;;5.14;56.42;95371.03;5022177;28;19977;-71
2022/11/05 03:32:26;;;;;;;;;;;;;;;5.33;56.49;95372.72;5026762;28;20060;-69
2022/11/05 03:34:52;;;;;;;;;;;;;;;5.32;55.63;95368.44;4993353;28;20457;-70
2022/11/05 03:37:18;;;;;;;;;;;;;;;4.84;57.35;95375.66;4994369;28;19984;-71
2022/11/05 03:39:44;;;;;;;;;;;;;;;4.77;57.89;95379.88;4987554;28;19994;-70
2022/11/05 03:42:11;;;;;;;;;;;;;;;4.98;57.42;95382.25;4990243;28;20361;-70
2022/11/05 03:44:37;;;;;;;;;;;;;;;5.20;56.70;95373.09;4991027;28;20045;-70
2022/11/05 03:47:03;;;;;;;;;;;;;;;5.17;56.25;95381.31;4996295;28;20096;-69
2022/11/05 03:49:34;;;;;;;;;;;;;;;4.96;57.70;95382.41;4990895;28;20405;-69
2022/11/05 03:52:01;;;;;;;;;;;;;;;5.32;56.66;95386.06;4993498;28;19989;-70
2022/11/05 03:54:26;;;;;;;;;;;;;;;4.92;57.34;95391.59;4988760;28;19994;-70
2022/11/05 03:57:00;;;;;;;;;;;;;;;4.88;57.95;95399.94;4990605;28;19981;-70
2022/11/05 03:59:25;;;;;;;;;;;;;;;5.04;57.07;95396.66;4989696;28;20029;-70
2022/11/05 04:01:51;;;;;;;;;;;;;;;4.44;58.66;95409.28;4993312;28;20028;-71
2022/11/05 04:04:16;;;;;;;;;;;;;;;4.25;60.16;95402.28;4990329;28;19994;-69
2022/11/05 04:14:53;;;;;;;;;;;;;;;3.96;60.66;95409.28;4989355;28;20005;-70
2022/11/05 04:17:18;;;;;;;;;;;;;;;3.87;61.42;95412.75;4990727;28;19974;-71
2022/11/05 04:25:12;;;;;;;;;;;;;;;3.41;61.85;95418.59;4992658;28;19984;-70
2022/11/05 04:27:38;;;;;;;;;;;;;;;2.95;61.94;95424.31;4995402;28;19990;-70
2022/11/05 04:30:19;;;;;;;;;;;;;;;2.95;61.65;95428.75;4988119;28;19970;-71
2022/11/05 04:33:03;;;;;;;;;;;;;;;3.56;59.84;95421.66;4994758;28;20140;-70
2022/11/05 04:35:32;;;;;;;;;;;;;;;3.63;59.84;95429.81;4992462;28;19998;-70
2022/11/05 04:37:58;;;;;;;;;;;;;;;3.73;59.31;95428.03;4992173;28;19981;-69
2022/11/05 04:40:24;;;;;;;;;;;;;;;4.19;58.28;95428.22;4988335;28;19990;-71
2022/11/05 04:42:49;;;;;;;;;;;;;;;3.94;59.01;95429.66;4992596;28;20037;-70
2022/11/05 04:45:14;;;;;;;;;;;;;;;4.42;56.15;95443.72;4988173;28;19977;-70
2022/11/05 04:47:39;;;;;;;;;;;;;;;3.36;59.57;95445.31;4990720;28;20052;-69
2022/11/05 04:50:05;;;;;;;;;;;;;;;3.33;60.13;95440.31;4989882;28;20501;-70
2022/11/05 04:52:30;;;;;;;;;;;;;;;3.48;59.65;95443.41;4986547;28;19965;-69
2022/11/05 04:54:56;;;;;;;;;;;;;;;3.96;58.84;95440.06;4985838;28;20037;-69
2022/11/05 04:57:21;;;;;;;;;;;;;;;3.79;58.17;95439.81;4985535;28;19984;-70
2022/11/05 04:59:47;;;;;;;;;;;;;;;3.96;58.77;95434.78;4985998;28;19985;-71
2022/11/05 05:02:12;;;;;;;;;;;;;;;4.04;58.64;95435.75;4994128;28;20302;-70
2022/11/05 05:04:37;;;;;;;;;;;;;;;4.52;57.18;95440.22;4997089;28;20024;-71
2022/11/05 05:07:02;;;;;;;;;;;;;;;4.95;54.95;95436.16;4993706;28;20256;-70
2022/11/05 05:09:28;;;;;;;;;;;;;;;5.29;53.97;95436.53;4993876;28;19977;-69
2022/11/05 05:11:53;;;;;;;;;;;;;;;5.63;54.36;95432.38;4990563;28;20037;-71
2022/11/05 05:14:18;;;;;;;;;;;;;;;5.88;53.21;95438.72;4991199;28;19990;-71
2022/11/05 05:16:43;;;;;;;;;;;;;;;5.65;54.44;95441.84;4995175;28;19970;-70
2022/11/05 05:19:08;;;;;;;;;;;;;;;5.57;53.53;95453.16;4998800;28;20503;-69
2022/11/05 05:21:40;;;;;;;;;;;;;;;5.83;52.50;95464.78;4994713;28;20033;-70
2022/11/05 05:24:07;;;;;;;;;;;;;;;5.78;52.46;95456.47;4993605;28;20092;-71
2022/11/05 05:26:33;;;;;;;;;;;;;;;5.97;52.19;95466.88;4987546;28;19989;-70
2022/11/05 05:28:58;;;;;;;;;;;;;;;5.70;52.33;95468.63;4985887;28;19974;-70
2022/11/05 05:31:23;;;;;;;;;;;;;;;4.72;55.17;95469.97;4986962;28;19991;-71
2022/11/05 05:33:51;;;;;;;;;;;;;;;4.47;55.25;95464.38;4991642;28;20005;-70
2022/11/05 05:36:16;;;;;;;;;;;;;;;4.60;55.37;95474.63;4989831;28;19993;-71
2022/11/05 05:38:41;;;;;;;;;;;;;;;4.90;55.13;95475.31;4992815;28;20020;-69
2022/11/05 05:41:07;;;;;;;;;;;;;;;5.22;53.84;95470.63;4996329;28;19985;-69
2022/11/05 05:43:32;;;;;;;;;;;;;;;5.29;53.75;95478.75;4990733;28;19997;-71
2022/11/05 05:46:07;;;;;;;;;;;;;;;5.43;53.62;95480.91;4988977;28;19970;-72
2022/11/05 05:48:32;;;;;;;;;;;;;;;5.79;52.75;95484.56;4993077;28;19976;-71
2022/11/05 05:51:01;;;;;;;;;;;;;;;5.17;54.05;95494.00;4996676;28;20405;-70
2022/11/05 05:53:27;;;;;;;;;;;;;;;4.39;56.99;95494.06;4994352;28;20335;-69
2022/11/05 05:55:52;;;;;;;;;;;;;;;4.92;55.62;95494.47;4993929;28;20001;-71
2022/11/05 05:58:18;;;;;;;;;;;;;;;5.19;55.15;95490.22;4990159;28;19998;-71
2022/11/05 06:00:43;;;;;;;;;;;;;;;4.91;55.83;95500.75;4995801;28;19980;-71
2022/11/05 06:03:08;;;;;;;;;;;;;;;4.49;56.74;95498.50;4995626;28;19993;-71
2022/11/05 06:05:34;;;;;;;;;;;;;;;4.44;57.45;95501.56;4993559;28;20266;-68
2022/11/05 06:07:59;;;;;;;;;;;;;;;4.32;57.59;95501.72;4992443;28;20044;-70
2022/11/05 06:10:24;;;;;;;;;;;;;;;4.48;57.55;95507.38;4995717;28;19994;-71
2022/11/05 06:12:49;;;;;;;;;;;;;;;4.81;56.71;95505.22;4996445;28;19985;-70
2022/11/05 06:15:15;;;;;;;;;;;;;;;4.24;58.42;95506.03;4989901;28;20036;-70
2022/11/05 06:17:42;;;;;;;;;;;;;;;4.86;56.69;95517.97;4993660;28;19981;-72
2022/11/05 06:20:07;;;;;;;;;;;;;;;4.75;56.38;95514.53;4992339;28;20082;-70
2022/11/05 06:22:32;;;;;;;;;;;;;;;4.01;57.91;95522.97;4990913;28;19998;-70
2022/11/05 06:24:58;;;;;;;;;;;;;;;3.90;58.88;95521.31;4999395;28;19974;-70
2022/11/05 06:27:23;;;;;;;;;;;;;;;4.12;59.51;95521.19;4997287;28;20010;-71
2022/11/05 06:29:48;;;;;;;;;;;;;;;3.88;58.49;95523.25;4999429;28;20465;-72
2022/11/05 06:32:13;;;;;;;;;;;;;;;4.03;58.22;95520.19;4998371;28;20041;-69
2022/11/05 06:34:39;;;;;;;;;;;;;;;4.80;56.04;95509.66;4998663;28;20009;-70
2022/11/05 06:37:04;;;;;;;;;;;;;;;4.33;56.84;95518.38;5001023;28;20076;-71
2022/11/05 06:39:29;;;;;;;;;;;;;;;4.11;57.01;95515.06;5000445;28;19997;-72
2022/11/05 06:41:54;;;;;;;;;;;;;;;4.23;57.23;95518.41;4987810;28;20244;-69
2022/11/05 06:44:21;;;;;;;;;;;;;;;4.09;57.99;95524.94;4992940;28;19986;-71
2022/11/05 06:46:46;;;;;;;;;;;;;;;4.54;57.15;95527.91;4992031;28;20001;-72
2022/11/05 06:49:11;;;;;;;;;;;;;;;4.78;56.16;95523.97;4995912;28;19966;-72
2022/11/05 06:51:36;;;;;;;;;;;;;;;4.47;57.13;95526.81;4996717;28;20312;-70
2022/11/05 06:54:02;;;;;;;;;;;;;;;4.57;56.25;95538.19;4995394;28;19978;-71
2022/11/05 06:56:27;;;;;;;;;;;;;;;4.50;57.38;95537.91;5001221;28;20012;-72
2022/11/05 06:58:52;;;;;;;;;;;;;;;4.34;57.56;95546.41;5000112;28;19990;-71
2022/11/05 07:01:17;;;;;;;;;;;;;;;4.16;58.29;95543.63;4995951;28;19981;-69
2022/11/05 07:03:44;;;;;;;;;;;;;;;3.96;58.05;95548.06;4987938;28;20081;-71
2022/11/05 07:06:09;;;;;;;;;;;;;;;4.43;56.25;95548.19;4988520;28;19984;-69
2022/11/05 07:08:34;;;;;;;;;;;;;;;4.93;55.51;95548.09;4995383;28;19973;-71
2022/11/05 07:11:00;;;;;;;;;;;;;;;5.06;54.94;95558.31;4995220;28;20398;-70
2022/11/05 07:13:25;;;;;;;;;;;;;;;4.64;56.76;95564.81;4995607;28;20320;-71
2022/11/05 07:15:50;;;;;;;;;;;;;;;4.79;56.27;95566.03;4990939;28;19998;-71
2022/11/05 07:18:16;;;;;;;;;;;;;;;4.55;56.49;95569.13;4992006;28;19994;-70
2022/11/05 07:20:41;;;;;;;;;;;;;;;4.32;57.33;95583.44;4994536;28;19966;-72
2022/11/05 07:23:08;;;;;;;;;;;;;;;4.07;58.00;95576.91;4994827;28;20322;-71
2022/11/05 07:25:33;;;;;;;;;;;;;;;3.64;59.67;95585.03;4996555;28;19981;-69
2022/11/05 07:27:59;;;;;;;;;;;;;;;4.53;56.70;95586.91;4996744;28;19989;-69
2022/11/05 07:30:24;;;;;;;;;;;;;;;4.79;55.97;95588.91;4993143;28;20008;-71
2022/11/05 07:32:49;;;;;;;;;;;;;;;4.80;55.87;95585.34;4994584;28;20458;-71
2022/11/05 07:35:15;;;;;;;;;;;;;;;4.74;56.50;95596.44;4995241;28;19996;-70
2022/11/05 07:37:41;;;;;;;;;;;;;;;4.69;56.18;95595.06;4993273;28;19974;-71
2022/11/05 07:40:06;;;;;;;;;;;;;;;5.32;54.48;95599.91;4993402;28;20085;-72
2022/11/05 07:42:33;;;;;;;;;;;;;;;4.86;55.09;95594.47;4991510;28;20100;-70
2022/11/05 07:44:58;;;;;;;;;;;;;;;4.55;56.83;95601.59;4995020;28;20456;-72
2022/11/05 07:47:23;;;;;;;;;;;;;;;4.99;56.83;95602.09;4993897;28;19993;-70
2022/11/05 07:49:49;;;;;;;;;;;;;;;5.12;55.54;95610.53;4994670;28;20021;-70
2022/11/05 07:52:14;;;;;;;;;;;;;;;4.77;56.03;95617.25;4994259;28;20475;-71
2022/11/05 07:54:39;;;;;;;;;;;;;;;4.58;56.86;95624.22;4993507;28;20409;-72
2022/11/05 07:57:04;;;;;;;;;;;;;;;4.53;56.41;95626.44;4997507;28;19978;-72
2022/11/05 07:59:29;;;;;;;;;;;;;;;4.57;55.60;95627.84;4989521;28;19991;-69
2022/11/05 08:01:55;;;;;;;;;;;;;;;5.33;54.23;95620.06;4991567;28;20017;-71
2022/11/05 08:04:20;;;;;;;;;;;;;;;5.09;53.96;95631.94;4989658;28;19996;-70
2022/11/05 08:06:45;;;;;;;;;;;;;;;4.79;54.93;95631.97;4992890;28;20001;-72
2022/11/05 08:09:10;;;;;;;;;;;;;;;5.02;54.05;95630.81;4996623;28;20036;-70
2022/11/05 08:11:36;;;;;;;;;;;;;;;4.66;54.34;95636.72;4989830;28;20001;-70
2022/11/05 08:14:01;;;;;;;;;;;;;;;4.64;54.98;95633.38;4992721;28;19974;-72
2022/11/05 08:16:26;;;;;;;;;;;;;;;5.07;54.89;95626.81;4993196;28;19990;-72
2022/11/05 08:18:51;;;;;;;;;;;;;;;5.20;53.76;95629.13;4993742;28;20002;-69
2022/11/05 08:21:17;;;;;;;;;;;;;;;4.86;54.51;95634.88;4993669;28;20073;-71
2022/11/05 08:23:42;;;;;;;;;;;;;;;5.22;53.99;95629.00;4994364;28;20340;-71
2022/11/05 08:26:08;;;;;;;;;;;;;;;5.73;52.37;95640.06;4988668;28;20337;-69
2022/11/05 08:28:33;;;;;;;;;;;;;;;5.65;52.10;95636.47;4992853;28;19962;-71
2022/11/05 08:30:58;;;;;;;;;;;;;;;5.35;52.77;95629.47;4991578;28;19994;-69
2022/11/05 08:33:24;;;;;;;;;;;;;;;5.63;52.35;95639.25;4992215;28;19999;-71
2022/11/05 08:35:49;;;;;;;;;;;;;;;5.70;52.14;95639.50;4992836;28;19990;-73
2022/11/05 08:38:15;;;;;;;;;;;;;;;5.61;51.41;95635.91;4989542;28;19970;-72
2022/11/05 08:40:40;;;;;;;;;;;;;;;5.69;51.91;95643.13;4987854;28;20480;-72
2022/11/05 08:43:06;;;;;;;;;;;;;;;5.87;51.28;95643.16;4988909;28;20484;-69
2022/11/05 08:45:31;;;;;;;;;;;;;;;5.18;52.81;95641.66;4990622;28;19977;-70
2022/11/05 08:48:06;;;;;;;;;;;;;;;5.71;51.91;95647.28;4994509;28;20012;-70
2022/11/05 08:50:32;;;;;;;;;;;;;;;5.72;52.32;95648.13;4993891;28;19993;-69
2022/11/05 08:52:57;;;;;;;;;;;;;;;5.74;51.65;95647.00;4991106;28;19981;-72
2022/11/05 08:55:22;;;;;;;;;;;;;;;5.77;51.61;95645.00;4987803;28;19989;-73
2022/11/05 08:57:47;;;;;;;;;;;;;;;5.73;52.46;95653.25;4992074;28;20013;-72
2022/11/05 09:00:13;;;;;;;;;;;;;;;6.21;50.88;95642.53;4990831;28;19990;-71
2022/11/05 09:02:38;;;;;;;;;;;;;;;5.59;52.24;95653.72;4988647;28;20246;-72
2022/11/05 09:05:04;;;;;;;;;;;;;;;5.55;52.21;95652.34;4990447;28;20096;-71
2022/11/05 09:07:30;;;;;;;;;;;;;;;5.31;52.93;95656.34;4987281;28;20484;-71
2022/11/05 09:09:55;;;;;;;;;;;;;;;4.70;54.63;95670.56;4994328;28;20351;-70
2022/11/05 09:12:20;;;;;;;;;;;;;;;5.21;52.77;95667.75;4985541;28;20087;-70
2022/11/05 09:14:45;;;;;;;;;;;;;;;5.17;53.20;95666.38;4991845;28;19990;-72
2022/11/05 09:17:17;;;;;;;;;;;;;;;5.16;53.07;95669.97;4988202;28;20246;-70
2022/11/05 09:19:42;;;;;;;;;;;;;;;4.32;54.51;95680.16;5005067;28;19994;-70
2022/11/05 09:22:07;;;;;;;;;;;;;;;4.62;54.09;95680.97;4988000;28;20603;-71
2022/11/05 09:24:32;;;;;;;;;;;;;;;4.91;54.08;95677.50;4989023;28;20210;-69
2022/11/05 09:26:58;;;;;;;;;;;;;;;5.52;52.10;95676.41;4990914;28;19990;-70
2022/11/05 09:29:23;;;;;;;;;;;;;;;6.11;49.90;95682.25;4985483;28;20061;-73
2022/11/05 09:31:48;;;;;;;;;;;;;;;6.01;50.63;95683.31;4989703;28;20237;-70
2022/11/05 09:34:14;;;;;;;;;;;;;;;6.38;50.05;95688.50;4989313;28;20076;-70
2022/11/05 09:36:39;;;;;;;;;;;;;;;6.29;48.47;95697.31;4993495;28;19970;-71
2022/11/05 09:39:04;;;;;;;;;;;;;;;6.34;48.55;95699.50;4989116;28;20375;-72
2022/11/05 09:41:36;;;;;;;;;;;;;;;5.69;50.85;95706.53;4987259;28;20132;-72
2022/11/05 09:44:05;;;;;;;;;;;;;;;5.57;51.13;95700.56;4989026;28;20502;-73
2022/11/05 09:46:37;;;;;;;;;;;;;;;4.88;53.01;95704.16;4979241;28;20387;-70
2022/11/05 09:49:04;;;;;;;;;;;;;;;4.83;53.38;95711.69;4985267;28;20509;-71
2022/11/05 09:51:29;;;;;;;;;;;;;;;5.45;52.00;95710.50;4990263;28;20385;-72
2022/11/05 09:53:55;;;;;;;;;;;;;;;5.51;51.59;95711.72;4989689;28;19966;-72
2022/11/05 09:56:24;;;;;;;;;;;;;;;5.43;51.88;95713.28;5022767;28;20381;-72
2022/11/05 09:58:51;;;;;;;;;;;;;;;5.98;50.38;95709.03;4995253;28;20221;-70
2022/11/05 10:01:20;;;;;;;;;;;;;;;5.42;51.44;95705.50;4992779;28;20032;-72
2022/11/05 10:03:47;;;;;;;;;;;;;;;6.58;49.75;95706.91;4987625;28;19995;-73
2022/11/05 10:06:19;;;;;;;;;;;;;;;7.07;46.81;95697.72;5006842;28;20009;-70
2022/11/05 10:08:45;;;;;;;;;;;;;;;7.58;47.53;95693.59;4994563;28;20234;-73
2022/11/05 10:11:31;;;;;;;;;;;;;;;7.57;46.85;95695.41;4992737;28;19994;-70
2022/11/05 10:13:58;;;;;;;;;;;;;;;8.11;44.34;95701.47;4991118;28;19965;-72
2022/11/05 10:16:29;;;;;;;;;;;;;;;8.69;44.46;95697.13;4990808;28;20105;-73
2022/11/05 10:19:15;;;;;;;;;;;;;;;8.59;42.73;95699.09;4991527;28;20100;-70
2022/11/05 10:21:40;;;;;;;;;;;;;;;8.67;43.89;95711.56;4992677;28;20406;-71
2022/11/05 10:24:12;;;;;;;;;;;;;;;8.38;43.66;95712.81;4992675;28;20004;-70
2022/11/05 10:26:38;;;;;;;;;;;;;;;8.56;43.06;95702.91;4990755;28;20354;-72
2022/11/05 10:29:03;;;;;;;;;;;;;;;8.67;43.77;95706.25;4994169;28;19976;-70
2022/11/05 10:31:28;;;;;;;;;;;;;;;8.36;43.30;95710.31;4991690;28;20492;-73
2022/11/05 10:33:54;;;;;;;;;;;;;;;8.70;43.49;95705.91;4992212;28;20039;-72
2022/11/05 10:36:30;;;;;;;;;;;;;;;9.28;43.16;95702.50;4989813;28;20143;-71
2022/11/05 10:38:57;;;;;;;;;;;;;;;8.60;44.38;95707.91;4993893;28;20056;-71
2022/11/05 10:41:43;;;;;;;;;;;;;;;9.63;42.84;95695.13;4995681;28;19989;-71
2022/11/05 10:44:14;;;;;;;;;;;;;;;9.41;41.31;95702.78;4991135;28;20415;-73
2022/11/05 10:46:48;;;;;;;;;;;;;;;9.23;42.63;95705.63;4990730;28;19989;-73
2022/11/05 10:49:17;;;;;;;;;;;;;;;9.08;40.53;95701.00;4993843;28;20263;-70
2022/11/05 10:51:43;;;;;;;;;;;;;;;8.80;41.54;95711.91;4997256;28;19994;-70
2022/11/05 10:54:11;;;;;;;;;;;;;;;9.18;39.89;95700.00;4991722;28;19970;-70
2022/11/05 10:56:37;;;;;;;;;;;;;;;9.18;40.39;95700.81;4991912;28;20035;-74
2022/11/05 10:59:03;;;;;;;;;;;;;;;9.20;41.84;95701.50;4981425;28;19994;-70
2022/11/05 11:01:30;;;;;;;;;;;;;;;8.59;43.19;95707.06;5008824;28;19981;-73
2022/11/05 11:04:05;;;;;;;;;;;;;;;9.79;41.93;95693.41;4983982;28;20096;-74
2022/11/05 11:06:33;;;;;;;;;;;;;;;9.77;39.82;95701.56;4993351;28;20040;-71
2022/11/05 11:08:59;;;;;;;;;;;;;;;9.13;42.84;95705.81;4975345;28;20415;-70
2022/11/05 11:11:31;;;;;;;;;;;;;;;10.53;38.73;95710.91;4985968;28;19986;-73
2022/11/05 11:14:12;;;;;;;;;;;;;;;9.47;39.89;95722.56;4998233;28;20000;-71
2022/11/05 11:16:38;;;;;;;;;;;;;;;9.53;40.19;95716.56;4984695;28;20416;-75
2022/11/05 11:19:05;;;;;;;;;;;;;;;11.36;37.22;95712.97;4985381;28;20565;-73
2022/11/05 11:21:30;;;;;;;;;;;;;;;10.28;38.32;95713.69;4985839;28;20033;-73
2022/11/05 11:23:56;;;;;;;;;;;;;;;11.07;37.92;95716.34;4990671;28;20025;-70
2022/11/05 11:26:22;;;;;;;;;;;;;;;11.63;34.95;95702.72;4996869;28;20429;-72
2022/11/05 11:28:54;;;;;;;;;;;;;;;11.71;35.13;95703.66;5026430;28;19997;-71
2022/11/05 11:31:20;;;;;;;;;;;;;;;10.40;37.35;95714.13;5029277;28;19997;-73
2022/11/05 11:33:46;;;;;;;;;;;;;;;10.74;36.94;95712.09;4997968;28;19978;-72
2022/11/05 11:36:11;;;;;;;;;;;;;;;10.61;36.74;95726.81;4994394;28;19990;-72
2022/11/05 11:38:37;;;;;;;;;;;;;;;10.90;36.11;95715.66;4994489;28;20025;-70
2022/11/05 11:41:05;;;;;;;;;;;;;;;9.45;37.76;95714.75;4992825;28;20316;-73
2022/11/05 11:43:32;;;;;;;;;;;;;;;8.84;40.14;95712.41;4995638;28;20056;-72
2022/11/05 11:45:57;;;;;;;;;;;;;;;7.30;43.73;95723.69;4993791;28;19977;-72
2022/11/05 11:48:28;;;;;;;;;;;;;;;8.61;42.35;95715.72;4996927;28;20052;-72
2022/11/05 11:50:54;;;;;;;;;;;;;;;8.35;42.94;95718.44;5002136;28;19993;-70
2022/11/05 11:53:19;;;;;;;;;;;;;;;7.96;43.51;95720.63;4999083;28;19966;-70
2022/11/05 11:55:53;;;;;;;;;;;;;;;8.01;43.93;95723.66;4994101;28;19993;-72
2022/11/05 11:58:19;;;;;;;;;;;;;;;7.15;45.08;95731.38;4998391;28;20012;-71
2022/11/05 12:00:44;;;;;;;;;;;;;;;6.51;46.94;95721.72;5003690;28;19970;-70
2022/11/05 12:03:12;;;;;;;;;;;;;;;6.46;46.91;95722.13;5026580;28;20013;-70
2022/11/05 12:05:39;;;;;;;;;;;;;;;6.76;47.28;95721.94;5000503;28;20437;-71
2022/11/05 12:08:08;;;;;;;;;;;;;;;7.01;47.18;95717.69;5039551;28;20365;-70
2022/11/05 12:10:46;;;;;;;;;;;;;;;7.75;44.38;95710.41;5028337;28;19990;-72
2022/11/05 12:13:20;;;;;;;;;;;;;;;6.74;46.17;95722.09;4990424;28;20080;-73
2022/11/05 12:15:45;;;;;;;;;;;;;;;7.59;44.62;95703.19;4990045;28;19993;-73
2022/11/05 12:18:30;;;;;;;;;;;;;;;8.37;43.16;95703.22;4992455;28;20032;-73
2022/11/05 12:20:56;;;;;;;;;;;;;;;8.49;43.11;95701.06;4987766;28;19974;-70
2022/11/05 12:23:30;;;;;;;;;;;;;;;9.36;42.34;95701.63;4990497;28;20339;-72
2022/11/05 12:26:14;;;;;;;;;;;;;;;9.43;41.37;95707.94;4995590;28;19987;-70
2022/11/05 12:28:50;;;;;;;;;;;;;;;10.00;39.95;95703.47;4990579;28;20088;-72
2022/11/05 12:31:25;;;;;;;;;;;;;;;10.60;37.69;95711.00;4986122;28;19990;-70
2022/11/05 12:33:56;;;;;;;;;;;;;;;9.21;39.52;95704.97;4990464;28;20361;-71
2022/11/05 12:36:25;;;;;;;;;;;;;;;9.51;38.58;95702.59;4997362;28;19997;-72
2022/11/05 12:39:08;;;;;;;;;;;;;;;9.11;40.64;95707.78;4989053;28;20001;-71
2022/11/05 12:41:50;;;;;;;;;;;;;;;8.76;40.89;95701.78;4992387;28;20093;-69
2022/11/05 12:44:34;;;;;;;;;;;;;;;8.76;41.63;95707.94;4991575;28;19998;-71
2022/11/05 12:47:10;;;;;;;;;;;;;;;9.75;41.08;95702.75;4992003;28;20017;-69
2022/11/05 12:49:38;;;;;;;;;;;;;;;8.76;41.04;95704.44;4986302;28;20509;-71
2022/11/05 12:52:17;;;;;;;;;;;;;;;9.66;40.32;95691.28;4987885;28;20008;-70
2022/11/05 12:54:48;;;;;;;;;;;;;;;10.15;38.21;95700.94;4983803;28;20251;-71
2022/11/05 12:57:13;;;;;;;;;;;;;;;10.30;38.17;95698.38;4988748;28;20422;-70
2022/11/05 12:59:52;;;;;;;;;;;;;;;10.01;37.75;95696.31;4993280;28;20069;-70
2022/11/05 13:02:23;;;;;;;;;;;;;;;10.17;37.53;95696.25;4986163;28;20531;-71
2022/11/05 13:04:53;;;;;;;;;;;;;;;10.47;37.13;95695.63;4989335;28;19975;-69
2022/11/05 13:07:21;;;;;;;;;;;;;;;10.34;37.33;95697.00;4988643;28;20005;-71
2022/11/05 13:09:49;;;;;;;;;;;;;;;10.61;37.57;95696.72;4989120;28;19967;-69
2022/11/05 13:12:14;;;;;;;;;;;;;;;10.99;35.92;95695.94;4987917;28;19982;-70
2022/11/05 13:14:42;;;;;;;;;;;;;;;12.63;33.66;95696.22;4992135;28;20508;-71
2022/11/05 13:17:12;;;;;;;;;;;;;;;14.11;31.31;95682.34;4985249;28;20001;-72
2022/11/05 13:19:41;;;;;;;;;;;;;;;15.34;28.39;95695.03;4982991;28;20488;-70
2022/11/05 13:22:11;;;;;;;;;;;;;;;15.42;26.66;95684.06;4987270;28;20396;-72
2022/11/05 13:24:43;;;;;;;;;;;;;;;15.30;28.28;95685.75;4991781;28;19977;-71
2022/11/05 13:27:14;;;;;;;;;;;;;;;13.59;29.98;95696.00;4985214;28;20671;-71
2022/11/05 13:29:49;;;;;;;;;;;;;;;12.33;32.54;95690.94;4990343;28;20181;-70
2022/11/05 13:32:24;;;;;;;;;;;;;;;10.16;35.89;95696.47;4990066;28;19996;-71
2022/11/05 13:34:50;;;;;;;;;;;;;;;11.29;34.22;95688.03;4991096;28;20008;-70